createdAt,value
2023-01-25T00:01:50.458Z,4.70
2023-01-25T00:04:52.615Z,4.80
2023-01-25T00:07:54.685Z,4.80
2023-01-25T00:10:58.779Z,4.80
2023-01-25T00:14:00.860Z,4.70
2023-01-25T00:17:03.316Z,4.80
2023-01-25T00:20:05.701Z,4.80
2023-01-25T00:23:07.836Z,4.80
2023-01-25T00:26:09.886Z,4.80
2023-01-25T00:29:13.756Z,4.80
2023-01-25T00:32:15.909Z,4.80
2023-01-25T00:35:18.141Z,4.60
2023-01-25T00:38:38.314Z,4.60
2023-01-25T00:41:40.769Z,4.60
2023-01-25T00:44:43.093Z,4.70
2023-01-25T00:47:47.529Z,4.70
2023-01-25T00:50:49.496Z,4.80
2023-01-25T00:53:52.062Z,4.50
2023-01-25T00:56:54.703Z,4.60
2023-01-25T00:59:56.700Z,4.60
2023-01-25T01:02:58.817Z,4.60
2023-01-25T01:06:00.792Z,4.70
2023-01-25T01:09:04.290Z,4.70
2023-01-25T01:12:06.329Z,4.60
2023-01-25T01:15:11.351Z,4.60
2023-01-25T01:18:13.622Z,4.70
2023-01-25T01:21:15.726Z,4.50
2023-01-25T01:24:18.119Z,4.70
2023-01-25T01:27:20.328Z,4.80
2023-01-25T01:30:22.352Z,4.50
2023-01-25T01:33:24.391Z,4.80
2023-01-25T01:36:29.468Z,4.70
2023-01-25T01:39:31.790Z,4.60
2023-01-25T01:42:34.036Z,4.60
2023-01-25T01:45:51.505Z,4.60
2023-01-25T01:49:05.033Z,4.60
2023-01-25T01:52:15.587Z,4.50
2023-01-25T01:55:21.896Z,4.60
2023-01-25T01:58:24.282Z,4.60
2023-01-25T02:01:27.117Z,4.60
2023-01-25T02:04:29.956Z,4.60
2023-01-25T02:07:35.512Z,4.60
2023-01-25T02:10:39.012Z,4.70
2023-01-25T02:13:41.398Z,4.70
2023-01-25T02:16:44.095Z,4.70
2023-01-25T02:20:11.591Z,4.70
2023-01-25T02:23:22.743Z,4.70
2023-01-25T02:26:27.543Z,4.80
2023-01-25T02:29:30.096Z,4.80
2023-01-25T02:32:34.802Z,4.70
2023-01-25T02:35:57.331Z,4.80
2023-01-25T02:39:08.829Z,4.70
2023-01-25T02:42:12.219Z,4.70
2023-01-25T02:45:19.139Z,4.80
2023-01-25T02:48:21.229Z,4.60
2023-01-25T02:51:27.670Z,4.80
2023-01-25T02:54:30.767Z,4.70
2023-01-25T02:57:32.795Z,4.70
2023-01-25T03:00:34.840Z,4.70
2023-01-25T03:03:36.913Z,4.80
2023-01-25T03:06:40.168Z,4.70
2023-01-25T03:09:42.846Z,4.80
2023-01-25T03:12:45.065Z,4.70
2023-01-25T03:15:47.287Z,4.90
2023-01-25T03:18:52.713Z,4.60
2023-01-25T03:21:57.202Z,4.60
2023-01-25T03:25:00.233Z,4.60
2023-01-25T03:28:02.999Z,4.60
2023-01-25T03:31:05.996Z,4.70
2023-01-25T03:34:08.268Z,4.70
2023-01-25T03:37:14.293Z,4.60
2023-01-25T03:40:17.692Z,4.80
2023-01-25T03:43:25.275Z,4.70
2023-01-25T03:46:30.457Z,4.80
2023-01-25T03:49:32.864Z,4.60
2023-01-25T03:52:36.239Z,4.60
2023-01-25T03:55:41.451Z,4.60
2023-01-25T03:58:43.866Z,4.60
2023-01-25T04:01:48.764Z,4.80
2023-01-25T04:04:50.953Z,4.70
2023-01-25T04:07:55.397Z,4.80
2023-01-25T04:11:08.616Z,4.70
2023-01-25T04:14:11.174Z,4.60
2023-01-25T04:17:23.166Z,4.70
2023-01-25T04:20:28.883Z,4.50
2023-01-25T04:23:32.466Z,4.50
2023-01-25T04:26:34.481Z,4.50
2023-01-25T04:29:41.378Z,4.40
2023-01-25T04:32:47.520Z,4.40
2023-01-25T04:36:04.414Z,4.40
2023-01-25T04:39:06.636Z,4.40
2023-01-25T04:42:11.045Z,4.40
2023-01-25T04:45:13.314Z,4.30
2023-01-25T04:48:16.240Z,4.30
2023-01-25T04:51:26.450Z,4.40
2023-01-25T04:54:28.631Z,4.40
2023-01-25T04:57:30.947Z,4.30
2023-01-25T05:00:33.805Z,4.30
2023-01-25T05:03:39.935Z,4.30
2023-01-25T05:06:49.717Z,4.30
2023-01-25T05:09:53.025Z,4.30
2023-01-25T05:12:57.571Z,4.20
2023-01-25T05:15:59.659Z,4.20
2023-01-25T05:19:01.838Z,4.20
2023-01-25T05:22:22.756Z,4.10
2023-01-25T05:25:27.799Z,4.20
2023-01-25T05:28:30.467Z,3.90
2023-01-25T05:31:48.258Z,3.90
2023-01-25T05:34:50.721Z,4.00
2023-01-25T05:37:58.458Z,4.00
2023-01-25T05:41:02.900Z,3.80
2023-01-25T05:44:05.137Z,3.90
2023-01-25T05:47:15.372Z,3.90
2023-01-25T05:50:17.966Z,3.90
2023-01-25T05:53:42.957Z,3.90
2023-01-25T05:56:45.632Z,3.80
2023-01-25T05:59:47.714Z,3.80
2023-01-25T06:02:54.112Z,3.90
2023-01-25T06:06:01.419Z,3.70
2023-01-25T06:09:04.119Z,3.70
2023-01-25T06:12:06.376Z,3.70
2023-01-25T06:15:09.501Z,3.70
2023-01-25T06:18:11.722Z,3.70
2023-01-25T06:21:43.148Z,3.80
2023-01-25T06:24:45.248Z,3.70
2023-01-25T06:27:47.230Z,3.70
2023-01-25T06:30:49.366Z,3.70
2023-01-25T06:33:52.390Z,3.80
2023-01-25T06:36:56.323Z,3.80
2023-01-25T06:39:58.491Z,3.80
2023-01-25T06:43:11.570Z,3.80
2023-01-25T06:46:14.030Z,3.90
2023-01-25T06:49:16.041Z,3.90
2023-01-25T06:52:18.077Z,3.90
2023-01-25T06:55:21.109Z,3.90
2023-01-25T06:58:23.148Z,3.80
2023-01-25T07:01:25.605Z,3.70
2023-01-25T07:04:27.667Z,3.90
2023-01-25T07:07:29.750Z,3.80
2023-01-25T07:10:33.740Z,3.80
2023-01-25T07:13:36.259Z,3.70
2023-01-25T07:16:38.300Z,3.80
2023-01-25T07:19:40.303Z,3.60
2023-01-25T07:22:43.126Z,3.70
2023-01-25T07:25:49.632Z,3.80
2023-01-25T07:28:56.247Z,3.80
2023-01-25T07:31:58.455Z,3.80
2023-01-25T07:35:00.514Z,3.80
2023-01-25T07:38:03.087Z,4.00
2023-01-25T07:41:05.563Z,3.90
2023-01-25T07:44:07.641Z,3.90
2023-01-25T07:47:15.991Z,3.90
2023-01-25T07:50:18.093Z,3.90
2023-01-25T07:53:20.098Z,4.00
2023-01-25T07:56:24.600Z,3.90
2023-01-25T07:59:26.970Z,3.90
2023-01-25T08:02:29.107Z,3.90
2023-01-25T08:05:31.219Z,3.90
2023-01-25T08:08:42.152Z,3.90
2023-01-25T08:11:44.179Z,3.90
2023-01-25T08:14:46.198Z,3.90
2023-01-25T08:17:48.249Z,4.00
2023-01-25T08:20:50.276Z,4.00
2023-01-25T08:23:55.124Z,4.20
2023-01-25T08:26:57.158Z,4.20
2023-01-25T08:29:59.199Z,4.20
2023-01-25T08:33:01.296Z,4.30
2023-01-25T08:36:03.726Z,4.10
2023-01-25T08:39:08.228Z,4.20
2023-01-25T08:42:10.263Z,4.10
2023-01-25T08:45:12.485Z,4.00
2023-01-25T08:48:14.475Z,4.10
2023-01-25T08:51:17.283Z,4.20
2023-01-25T08:54:19.354Z,4.20
2023-01-25T08:57:21.374Z,4.10
2023-01-25T09:00:23.459Z,4.20
2023-01-25T09:03:25.737Z,4.20
2023-01-25T09:06:27.790Z,4.30
2023-01-25T09:09:29.880Z,4.30
2023-01-25T09:12:31.844Z,4.20
2023-01-25T09:15:33.939Z,4.30
2023-01-25T09:18:40.589Z,4.20
2023-01-25T09:21:42.638Z,4.20
2023-01-25T09:24:44.673Z,4.30
2023-01-25T09:27:50.374Z,4.20
2023-01-25T09:31:18.882Z,4.30
2023-01-25T09:34:39.073Z,4.40
2023-01-25T09:37:41.061Z,4.20
2023-01-25T09:40:51.188Z,4.40
2023-01-25T09:44:14.629Z,4.30
2023-01-25T09:47:31.206Z,4.40
2023-01-25T09:50:56.296Z,4.40
2023-01-25T09:53:58.528Z,4.40
2023-01-25T09:57:00.847Z,4.30
2023-01-25T10:00:15.553Z,4.30
2023-01-25T10:03:23.000Z,4.20
2023-01-25T10:06:40.840Z,4.20
2023-01-25T10:10:05.588Z,4.30
2023-01-25T10:13:21.849Z,4.20
2023-01-25T10:16:32.951Z,4.20
2023-01-25T10:19:41.029Z,4.40
2023-01-25T10:23:25.286Z,4.20
2023-01-25T10:26:32.346Z,4.40
2023-01-25T10:29:36.828Z,4.20
2023-01-25T10:32:51.115Z,4.20
2023-01-25T10:36:01.023Z,4.40
2023-01-25T10:39:04.358Z,4.40
2023-01-25T10:42:10.300Z,4.40
2023-01-25T10:45:14.678Z,4.20
2023-01-25T10:48:37.593Z,4.30
2023-01-25T10:51:40.230Z,4.40
2023-01-25T10:54:42.809Z,4.50
2023-01-25T10:57:46.293Z,4.40
2023-01-25T11:00:51.969Z,4.40
2023-01-25T11:03:54.568Z,4.50
2023-01-25T11:06:56.970Z,4.40
2023-01-25T11:09:58.944Z,4.50
2023-01-25T11:13:16.009Z,4.40
2023-01-25T11:16:30.939Z,4.40
2023-01-25T11:19:37.740Z,4.40
2023-01-25T11:22:50.238Z,4.40
2023-01-25T11:25:53.020Z,4.50
2023-01-25T11:29:17.537Z,4.40
2023-01-25T11:32:27.134Z,4.30
2023-01-25T11:35:34.485Z,4.40
2023-01-25T11:38:38.182Z,4.40
2023-01-25T11:41:56.797Z,4.40
2023-01-25T11:45:08.992Z,4.50
2023-01-25T11:48:49.514Z,4.40
2023-01-25T12:03:45.677Z,4.40
2023-01-25T12:07:10.672Z,4.30
2023-01-25T12:10:37.487Z,4.40
2023-01-25T12:14:09.668Z,4.60
2023-01-25T12:17:20.856Z,4.40
2023-01-25T12:20:31.556Z,4.50
2023-01-25T12:23:48.720Z,4.40
2023-01-25T12:27:17.386Z,4.60
2023-01-25T12:30:43.517Z,4.50
2023-01-25T12:34:03.828Z,4.50
2023-01-25T12:37:18.577Z,4.40
2023-01-25T12:40:29.001Z,4.50
2023-01-25T12:43:38.302Z,4.60
2023-01-25T12:47:22.530Z,4.60
2023-01-25T12:50:54.759Z,4.60
2023-01-25T12:54:00.612Z,4.60
2023-01-25T12:57:15.873Z,4.70
2023-01-25T13:00:31.267Z,4.50
2023-01-25T13:04:01.759Z,4.50
2023-01-25T13:07:15.534Z,4.50
2023-01-25T13:10:29.454Z,4.70
2023-01-25T13:13:31.760Z,4.60
2023-01-25T13:16:42.561Z,4.70
2023-01-25T13:19:44.659Z,4.80
2023-01-25T13:22:46.696Z,4.70
2023-01-25T13:25:48.656Z,4.80
2023-01-25T13:28:58.060Z,4.70
2023-01-25T13:32:00.917Z,4.60
2023-01-25T13:35:03.120Z,4.60
2023-01-25T13:38:17.336Z,4.60
2023-01-25T13:41:19.337Z,4.60
2023-01-25T13:44:28.578Z,4.60
2023-01-25T13:47:33.883Z,4.70
2023-01-25T13:50:38.568Z,4.60
2023-01-25T13:53:40.568Z,4.70
2023-01-25T13:56:43.010Z,4.70
2023-01-25T13:59:44.949Z,4.80
2023-01-25T14:02:54.768Z,4.60
2023-01-25T14:05:59.279Z,4.70
2023-01-25T14:09:16.862Z,4.60
2023-01-25T14:12:39.408Z,4.70
2023-01-25T14:15:41.477Z,4.70
2023-01-25T14:18:43.429Z,4.60
2023-01-25T14:21:45.380Z,4.60
2023-01-25T14:25:11.089Z,4.50
2023-01-25T14:28:15.143Z,4.50
2023-01-25T14:31:25.635Z,4.50
2023-01-25T14:34:27.660Z,4.50
2023-01-25T14:37:29.591Z,4.50
2023-01-25T14:40:32.217Z,4.70
2023-01-25T14:43:36.940Z,4.60
2023-01-25T14:46:40.442Z,4.50
2023-01-25T14:49:42.455Z,4.50
2023-01-25T14:52:44.338Z,4.40
2023-01-25T14:55:47.852Z,4.40
2023-01-25T14:58:59.055Z,4.50
2023-01-25T15:02:12.580Z,4.50
2023-01-25T15:05:23.871Z,4.40
2023-01-25T15:08:52.045Z,4.50
2023-01-25T15:12:00.671Z,4.50
2023-01-25T15:15:19.512Z,4.40
2023-01-25T15:18:40.085Z,4.50
2023-01-25T15:21:41.994Z,4.50
2023-01-25T15:24:50.253Z,4.40
2023-01-25T15:27:55.560Z,4.40
2023-01-25T15:31:09.859Z,4.40
2023-01-25T15:34:19.675Z,4.30
2023-01-25T15:37:21.638Z,4.30
2023-01-25T15:40:29.750Z,4.30
2023-01-25T15:43:31.766Z,4.30
2023-01-25T15:46:34.047Z,4.30
2023-01-25T15:49:35.934Z,4.30
2023-01-25T15:52:37.803Z,4.20
2023-01-25T15:55:39.798Z,4.10
2023-01-25T15:58:45.550Z,4.20
2023-01-25T16:01:47.464Z,4.30
2023-01-25T16:04:56.251Z,4.20
2023-01-25T16:07:58.311Z,4.20
2023-01-25T16:11:00.322Z,4.20
2023-01-25T16:14:08.760Z,4.20
2023-01-25T16:17:21.183Z,4.20
2023-01-25T16:20:23.026Z,4.20
2023-01-25T16:23:24.969Z,4.20
2023-01-25T16:26:28.497Z,4.10
2023-01-25T16:29:30.418Z,4.10
2023-01-25T16:32:32.337Z,4.10
2023-01-25T16:38:40.854Z,4.10
2023-01-25T16:41:42.834Z,4.20
2023-01-25T16:44:46.711Z,4.30
2023-01-25T16:47:48.646Z,4.20
2023-01-25T16:50:51.802Z,4.20
2023-01-25T16:53:56.058Z,4.20
2023-01-25T16:56:59.018Z,4.20
2023-01-25T17:00:04.065Z,4.20
2023-01-25T17:03:06.135Z,4.30
2023-01-25T17:06:21.359Z,4.10
2023-01-25T17:09:25.169Z,4.10
2023-01-25T17:12:28.048Z,4.20
2023-01-25T17:15:30.354Z,4.20
2023-01-25T17:18:32.447Z,4.20
2023-01-25T17:21:34.627Z,4.30
2023-01-25T17:24:42.899Z,4.20
2023-01-25T17:27:44.920Z,4.00
2023-01-25T17:30:47.169Z,4.00
2023-01-25T17:33:50.206Z,4.10
2023-01-25T17:36:54.967Z,4.20
2023-01-25T17:39:57.528Z,4.10
2023-01-25T17:42:59.682Z,3.90
2023-01-25T17:49:27.322Z,3.90
2023-01-25T17:52:29.377Z,4.00
2023-01-25T17:55:34.376Z,4.10
2023-01-25T17:58:37.621Z,4.20
2023-01-25T18:01:40.061Z,4.10
2023-01-25T18:04:42.170Z,4.10
2023-01-25T18:07:44.354Z,4.00
2023-01-25T18:10:48.616Z,3.90
2023-01-25T18:13:54.637Z,4.20
2023-01-25T18:16:56.732Z,4.00
2023-01-25T18:23:06.081Z,3.90
2023-01-25T18:26:20.751Z,3.90
2023-01-25T18:29:35.575Z,4.00
2023-01-25T18:32:37.581Z,4.10
2023-01-25T18:35:47.960Z,4.00
2023-01-25T18:38:49.940Z,4.10
2023-01-25T18:41:52.036Z,4.00
2023-01-25T18:44:59.989Z,3.90
2023-01-25T18:48:02.116Z,3.90
2023-01-25T18:51:12.781Z,3.90
2023-01-25T18:54:14.744Z,3.90
2023-01-25T18:57:17.722Z,3.90
2023-01-25T19:00:19.939Z,4.00
2023-01-25T19:03:22.481Z,4.00
2023-01-25T19:06:25.194Z,4.20
2023-01-25T19:09:28.663Z,4.10
2023-01-25T19:12:30.732Z,4.20
2023-01-25T19:18:42.697Z,3.90
2023-01-25T19:24:58.704Z,3.80
2023-01-25T19:28:00.881Z,3.90
2023-01-25T19:31:26.402Z,3.80
2023-01-25T19:34:28.391Z,3.90
2023-01-25T19:37:30.360Z,4.00
2023-01-25T19:40:32.347Z,3.90
2023-01-25T19:43:34.351Z,4.00
2023-01-25T19:46:37.005Z,4.00
2023-01-25T19:49:38.958Z,4.10
2023-01-25T19:52:40.924Z,3.90
2023-01-25T19:55:42.909Z,4.00
2023-01-25T19:58:46.311Z,3.90
2023-01-25T20:01:48.336Z,3.90
2023-01-25T20:04:51.379Z,3.90
2023-01-25T20:07:53.412Z,3.90
2023-01-25T20:11:02.835Z,4.00
2023-01-25T20:14:05.717Z,4.10
2023-01-25T20:17:08.010Z,4.10
2023-01-25T20:20:10.877Z,4.10
2023-01-25T20:23:12.874Z,4.10
2023-01-25T20:26:18.111Z,4.00
2023-01-25T20:29:22.649Z,4.00
2023-01-25T20:32:32.745Z,3.90
2023-01-25T20:35:35.446Z,3.90
2023-01-25T20:38:37.439Z,3.90
2023-01-25T20:41:39.330Z,3.90
2023-01-25T20:44:41.286Z,3.80
2023-01-25T20:47:43.268Z,3.90
2023-01-25T20:50:45.327Z,3.90
2023-01-25T20:53:50.304Z,4.00
2023-01-25T20:56:52.345Z,4.10
2023-01-25T20:59:56.541Z,4.00
2023-01-25T21:02:58.786Z,3.90
2023-01-25T21:06:03.282Z,3.80
2023-01-25T21:09:05.610Z,3.90
2023-01-25T21:12:07.720Z,3.70
2023-01-25T21:15:12.690Z,3.80
2023-01-25T21:18:14.555Z,3.90
2023-01-25T21:21:25.538Z,3.90
2023-01-25T21:24:27.541Z,3.90
2023-01-25T21:27:29.480Z,3.90
2023-01-25T21:30:31.538Z,3.90
2023-01-25T21:33:33.628Z,3.90
2023-01-25T21:36:42.069Z,3.90
2023-01-25T21:39:44.055Z,3.90
2023-01-25T21:42:47.553Z,3.90
2023-01-25T21:45:49.577Z,3.90
2023-01-25T21:48:55.744Z,3.90
2023-01-25T21:51:59.744Z,3.90
2023-01-25T21:55:01.649Z,3.80
2023-01-25T21:58:03.612Z,3.90
2023-01-25T22:01:05.621Z,3.90
2023-01-25T22:04:07.614Z,3.90
2023-01-25T22:07:11.038Z,3.90
2023-01-25T22:10:13.222Z,3.80
2023-01-25T22:13:15.320Z,3.70
2023-01-25T22:16:17.259Z,3.70
2023-01-25T22:19:19.422Z,3.80
2023-01-25T22:22:21.352Z,3.90
2023-01-25T22:25:23.276Z,3.80
2023-01-25T22:28:27.081Z,3.70
2023-01-25T22:31:31.193Z,3.80
2023-01-25T22:34:33.202Z,3.90
2023-01-25T22:37:37.349Z,3.70
2023-01-25T22:40:39.286Z,3.70
2023-01-25T22:43:41.416Z,3.70
2023-01-25T22:46:43.392Z,3.80
2023-01-25T22:49:45.402Z,3.80
2023-01-25T22:52:47.287Z,3.70
2023-01-25T22:55:52.624Z,3.80
2023-01-25T22:58:55.422Z,3.80
2023-01-25T23:01:57.336Z,3.80
2023-01-25T23:04:59.373Z,3.80
2023-01-25T23:08:01.307Z,3.70
2023-01-25T23:11:06.489Z,3.70
2023-01-25T23:14:12.039Z,3.50
2023-01-25T23:17:13.945Z,3.60
2023-01-25T23:20:15.854Z,3.80
2023-01-25T23:23:19.248Z,3.60
2023-01-25T23:26:21.717Z,3.80
2023-01-25T23:29:23.659Z,3.70
2023-01-25T23:32:25.578Z,3.60
2023-01-25T23:35:27.563Z,3.80
2023-01-25T23:38:29.521Z,3.80
2023-01-25T23:41:32.901Z,3.70
2023-01-25T23:44:35.089Z,3.90
2023-01-25T23:47:37.448Z,3.80
2023-01-25T23:50:39.416Z,3.70
2023-01-25T23:53:43.767Z,3.80
2023-01-25T23:56:45.652Z,3.70
2023-01-25T23:59:47.767Z,3.70
